Time;durP1;ratioP1;P1;durP2;ratioP2;P2;SDS_P1;SDS_P2;PMS_P1;PMS_P2;Temp;Humidity;BMP_temperature;BMP_pressure;BME280_temperature;BME280_humidity;BME280_pressure;Samples;Min_cycle;Max_cycle;Signal;HPM_P1;HPM_P2
2021/12/02 00:01:59;;;;;;;2.67;0.73;;;;;;;3.78;74.47;95745.63;5049264;28;20508;-51
2021/12/02 00:04:27;;;;;;;2.75;0.68;;;;;;;3.66;74.88;95745.75;5059429;28;20136;-52
2021/12/02 00:06:54;;;;;;;2.83;0.68;;;;;;;3.70;74.54;95738.84;5063648;28;20504;-55
2021/12/02 00:09:20;;;;;;;1.65;0.60;;;;;;;3.59;75.06;95742.41;5045485;28;20095;-54
2021/12/02 00:11:47;;;;;;;1.88;0.68;;;;;;;3.56;75.16;95732.19;5044317;28;20115;-53
2021/12/02 00:14:15;;;;;;;2.45;0.70;;;;;;;3.48;75.08;95736.94;5062545;28;20041;-49
2021/12/02 00:22:12;;;;;;;1.80;0.70;;;;;;;3.48;74.51;95758.34;5058166;28;20053;-52
2021/12/02 00:24:41;;;;;;;1.50;0.80;;;;;;;3.51;74.44;95755.16;5065552;28;20044;-53
2021/12/02 00:27:09;;;;;;;1.80;0.55;;;;;;;3.51;74.60;95762.41;5048359;28;20538;-53
2021/12/02 00:29:39;;;;;;;3.22;0.80;;;;;;;3.53;75.39;95762.94;5065313;28;20052;-52
2021/12/02 00:32:08;;;;;;;3.25;0.60;;;;;;;3.62;75.07;95763.34;5059525;28;20099;-54
2021/12/02 00:34:37;;;;;;;2.35;0.70;;;;;;;3.67;75.26;95766.09;5067531;28;20549;-54
2021/12/02 00:37:04;;;;;;;1.13;0.60;;;;;;;3.64;75.36;95759.38;5068238;28;20040;-52
2021/12/02 00:39:31;;;;;;;1.95;0.68;;;;;;;3.79;75.34;95757.13;5054061;28;20056;-55
2021/12/02 00:41:59;;;;;;;6.22;0.88;;;;;;;3.85;75.19;95762.31;5050335;28;20049;-56
2021/12/02 00:44:25;;;;;;;4.05;0.77;;;;;;;3.85;76.24;95762.31;5066260;28;20049;-56
2021/12/02 00:46:52;;;;;;;1.27;0.60;;;;;;;3.81;76.78;95752.34;5068070;28;20522;-54
2021/12/02 00:49:19;;;;;;;1.70;0.60;;;;;;;3.73;77.47;95758.94;5053896;28;20048;-54
2021/12/02 00:51:52;;;;;;;2.03;0.68;;;;;;;3.76;77.70;95769.16;5061966;28;20076;-56
2021/12/02 00:54:21;;;;;;;2.40;0.80;;;;;;;3.68;78.79;95758.88;5045603;28;20041;-55
2021/12/02 00:56:48;;;;;;;1.90;0.80;;;;;;;3.64;79.87;95766.56;5048467;28;20041;-53
2021/12/02 00:59:16;;;;;;;4.45;0.90;;;;;;;3.66;79.89;95775.19;5050362;28;20052;-55
2021/12/02 01:01:43;;;;;;;4.53;0.70;;;;;;;3.60;80.84;95774.28;5062837;28;20045;-51
2021/12/02 01:04:13;;;;;;;2.60;0.93;;;;;;;3.56;81.52;95770.50;5048632;28;20053;-56
2021/12/02 01:06:41;;;;;;;4.88;0.77;;;;;;;3.48;82.07;95771.72;5066717;28;20466;-54
2021/12/02 01:09:10;;;;;;;6.35;0.93;;;;;;;3.50;82.04;95777.63;5066945;28;20047;-53
2021/12/02 01:11:38;;;;;;;5.70;1.25;;;;;;;3.44;83.15;95756.41;5047723;28;20048;-50
2021/12/02 01:14:06;;;;;;;1.10;0.57;;;;;;;3.27;83.96;95754.56;5053314;28;20050;-50
2021/12/02 01:16:32;;;;;;;4.68;0.90;;;;;;;3.36;83.54;95758.44;5051145;28;20059;-55
2021/12/02 01:19:00;;;;;;;2.35;0.70;;;;;;;3.20;83.25;95762.75;5047214;28;20103;-47
2021/12/02 01:21:28;;;;;;;0.75;0.60;;;;;;;3.30;82.63;95764.78;5065698;28;20052;-54
2021/12/02 01:23:59;;;;;;;4.03;0.80;;;;;;;3.21;83.84;95767.03;5062334;28;20515;-51
2021/12/02 01:26:28;;;;;;;6.00;1.00;;;;;;;3.19;83.99;95771.84;5059410;28;20051;-50
2021/12/02 01:28:55;;;;;;;4.10;1.02;;;;;;;3.14;84.40;95763.75;5046113;28;20049;-55
2021/12/02 01:31:22;;;;;;;3.72;1.00;;;;;;;3.08;85.24;95776.22;5056228;28;20041;-56
2021/12/02 01:33:51;;;;;;;3.22;1.02;;;;;;;3.09;85.23;95777.84;5062348;28;20658;-55
2021/12/02 01:36:19;;;;;;;4.70;1.25;;;;;;;3.11;85.46;95782.94;5067525;28;20041;-54
2021/12/02 01:39:14;;;;;;;5.60;1.10;;;;;;;3.22;84.89;95787.41;5052488;28;20041;-54
2021/12/02 01:41:49;;;;;;;4.50;1.13;;;;;;;3.12;85.46;95780.03;5057500;28;20036;-54
2021/12/02 01:44:19;;;;;;;1.25;0.60;;;;;;;3.24;84.36;95781.78;5067493;28;20561;-53
2021/12/02 01:46:55;;;;;;;3.05;0.98;;;;;;;3.23;84.24;95788.19;5054401;28;20492;-55
2021/12/02 01:49:25;;;;;;;1.42;0.90;;;;;;;3.29;83.94;95789.09;5047648;28;20320;-55
2021/12/02 01:55:18;;;;;;;1.33;0.70;;;;;;;3.28;83.25;95782.13;5059545;28;20041;-54
2021/12/02 01:57:59;;;;;;;0.77;0.50;;;;;;;3.10;84.13;95781.34;5046960;28;20405;-56
2021/12/02 02:00:41;;;;;;;2.08;0.70;;;;;;;3.10;83.87;95779.44;5054692;28;20464;-56
2021/12/02 02:03:09;;;;;;;2.22;0.50;;;;;;;2.93;84.71;95787.47;5058994;28;20471;-50
2021/12/02 02:05:36;;;;;;;1.08;0.70;;;;;;;2.89;84.61;95785.53;5052537;28;20042;-51
2021/12/02 02:08:12;;;;;;;0.80;0.50;;;;;;;2.99;83.40;95783.81;5028434;28;20048;-51
2021/12/02 02:10:41;;;;;;;0.98;0.60;;;;;;;2.93;83.70;95779.47;5050736;28;20052;-53
2021/12/02 02:13:10;;;;;;;1.67;0.50;;;;;;;3.07;82.68;95774.59;5047610;28;20491;-54
2021/12/02 02:15:40;;;;;;;1.40;0.50;;;;;;;3.01;82.36;95769.41;5055725;28;20048;-49
2021/12/02 02:20:49;;;;;;;4.28;0.50;;;;;;;2.90;83.44;95779.13;5064481;28;20036;-53
2021/12/02 02:23:16;;;;;;;1.52;0.50;;;;;;;2.79;83.49;95780.81;5050230;28;20044;-53
2021/12/02 02:25:45;;;;;;;1.00;0.50;;;;;;;2.74;83.62;95784.22;5045626;28;20094;-50
2021/12/02 02:28:12;;;;;;;0.70;0.30;;;;;;;2.70;83.78;95783.88;5052800;28;20040;-48
2021/12/02 02:30:39;;;;;;;2.05;0.63;;;;;;;2.74;83.61;95784.22;5056696;28;20455;-53
2021/12/02 02:33:07;;;;;;;1.77;0.40;;;;;;;2.79;83.44;95784.31;5052355;28;20418;-56
2021/12/02 02:35:33;;;;;;;0.45;0.30;;;;;;;2.70;83.97;95783.88;5050013;28;20057;-51
2021/12/02 02:38:00;;;;;;;8.45;0.65;;;;;;;2.69;84.07;95784.13;5064978;28;20037;-53
2021/12/02 02:40:26;;;;;;;0.57;0.40;;;;;;;2.61;84.07;95782.66;5058226;28;20057;-51
2021/12/02 02:42:59;;;;;;;0.35;0.35;;;;;;;2.59;84.65;95785.56;5048558;28;20093;-51
2021/12/02 02:45:25;;;;;;;1.17;0.32;;;;;;;2.55;84.22;95786.28;5026621;28;20046;-52
2021/12/02 02:47:52;;;;;;;0.85;0.60;;;;;;;2.62;84.20;95783.47;5029837;28;20039;-55
2021/12/02 02:50:19;;;;;;;2.13;0.40;;;;;;;2.42;84.48;95787.38;5051728;28;20041;-52
2021/12/02 02:52:46;;;;;;;0.77;0.40;;;;;;;2.27;85.33;95777.22;5061178;28;20045;-51
2021/12/02 02:55:21;;;;;;;1.05;0.40;;;;;;;2.26;85.40;95781.78;5046737;28;20044;-55
2021/12/02 02:58:04;;;;;;;1.42;0.68;;;;;;;2.20;85.53;95778.19;5046145;28;20041;-53
2021/12/02 03:00:38;;;;;;;0.85;0.50;;;;;;;2.23;85.56;95778.75;5053406;28;20052;-51
2021/12/02 03:08:20;;;;;;;0.88;0.40;;;;;;;2.49;84.47;95785.38;5043630;28;20037;-53
2021/12/02 03:10:51;;;;;;;1.52;0.52;;;;;;;2.43;84.48;95771.13;5043393;28;20044;-53
2021/12/02 03:13:28;;;;;;;0.90;0.40;;;;;;;2.51;84.37;95777.94;5053635;28;20047;-56
2021/12/02 03:18:40;;;;;;;1.92;0.45;;;;;;;2.49;84.06;95776.53;5045421;28;20044;-52
2021/12/02 03:21:21;;;;;;;1.67;0.57;;;;;;;2.29;84.98;95769.78;5057290;28;20384;-52
2021/12/02 03:23:53;;;;;;;1.47;0.60;;;;;;;2.18;85.17;95777.59;5059700;28;20041;-54
2021/12/02 03:26:20;;;;;;;;;;;;;;;2.13;86.16;95766.03;5058613;28;20044;-52
2021/12/02 03:28:48;;;;;;;0.82;0.47;;;;;;;2.09;85.66;95765.69;5065330;28;19920;-53
2021/12/02 03:31:15;;;;;;;1.20;0.40;;;;;;;2.11;85.87;95763.59;5064328;28;20040;-50
2021/12/02 03:33:42;;;;;;;1.88;0.80;;;;;;;2.26;84.99;95760.41;5046295;28;20052;-50
2021/12/02 03:36:10;;;;;;;1.13;0.45;;;;;;;2.36;84.67;95764.31;5065932;28;20056;-55
2021/12/02 03:38:37;;;;;;;2.58;0.68;;;;;;;2.42;84.55;95753.47;5064942;28;20108;-55
2021/12/02 03:41:04;;;;;;;5.03;0.88;;;;;;;2.60;83.88;95759.66;5037621;28;20044;-50
2021/12/02 03:43:38;;;;;;;1.88;0.80;;;;;;;2.66;83.47;95761.38;5045337;28;20448;-56
2021/12/02 03:46:06;;;;;;;5.13;0.85;;;;;;;2.63;83.53;95761.03;5045288;28;20037;-53
2021/12/02 03:48:35;;;;;;;3.05;0.70;;;;;;;2.69;83.48;95760.09;5043418;28;20041;-55
2021/12/02 03:51:03;;;;;;;3.80;0.80;;;;;;;2.73;83.34;95767.38;5048364;28;20203;-49
2021/12/02 03:53:30;;;;;;;0.93;0.60;;;;;;;2.65;83.82;95766.97;5048921;28;20033;-51
2021/12/02 03:55:56;;;;;;;2.85;0.63;;;;;;;2.69;83.55;95760.09;5049330;28;20095;-54
2021/12/02 03:58:23;;;;;;;1.77;0.70;;;;;;;2.72;83.40;95760.41;5048660;28;20832;-53
2021/12/02 04:00:50;;;;;;;1.48;0.88;;;;;;;2.78;83.10;95761.31;5057404;28;20056;-50
2021/12/02 04:03:16;;;;;;;2.53;0.60;;;;;;;2.81;83.12;95763.50;5050239;28;20037;-54
2021/12/02 04:05:44;;;;;;;3.85;1.27;;;;;;;2.63;84.03;95767.19;5063566;28;20055;-53
2021/12/02 04:08:11;;;;;;;2.88;0.85;;;;;;;2.55;84.34;95775.59;5069042;28;20059;-55
2021/12/02 04:10:40;;;;;;;5.72;0.80;;;;;;;2.38;84.90;95768.34;5060608;28;20070;-51
2021/12/02 04:15:40;;;;;;;1.83;0.80;;;;;;;2.35;84.98;95763.50;5052785;28;20040;-53
2021/12/02 04:18:07;;;;;;;2.45;0.70;;;;;;;2.42;84.83;95768.69;5060155;28;20041;-51
2021/12/02 04:20:36;;;;;;;1.27;0.70;;;;;;;2.39;84.78;95763.84;5060466;28;20511;-51
2021/12/02 04:23:03;;;;;;;1.88;0.70;;;;;;;2.30;85.45;95758.06;5068509;28;20114;-55
2021/12/02 04:25:30;;;;;;;3.28;0.82;;;;;;;2.38;85.28;95765.69;5057774;28;20041;-53
2021/12/02 04:27:57;;;;;;;2.70;0.60;;;;;;;2.51;84.60;95769.13;5048818;28;20045;-48
2021/12/02 04:30:25;;;;;;;3.33;0.80;;;;;;;2.55;84.33;95768.38;5058212;28;20106;-54
2021/12/02 04:32:53;;;;;;;1.73;0.88;;;;;;;2.50;84.35;95760.28;5049036;28;20041;-56
2021/12/02 04:35:21;;;;;;;1.30;0.57;;;;;;;2.56;83.87;95764.69;5068450;28;20052;-55
2021/12/02 04:37:51;;;;;;;3.03;0.77;;;;;;;2.59;83.55;95763.38;5067858;28;20040;-52
2021/12/02 04:40:20;;;;;;;1.92;1.35;;;;;;;2.33;84.85;95763.72;5050953;28;20083;-54
2021/12/02 04:42:49;;;;;;;3.53;0.80;;;;;;;2.26;85.24;95764.91;5067845;28;20040;-50
2021/12/02 04:45:16;;;;;;;4.65;1.30;;;;;;;2.27;85.75;95766.53;5065653;28;20562;-48
2021/12/02 04:47:42;;;;;;;3.05;0.68;;;;;;;2.28;85.65;95763.63;5047936;28;20032;-55
2021/12/02 04:50:09;;;;;;;3.13;0.63;;;;;;;2.44;84.68;95771.94;5055557;28;20040;-55
2021/12/02 04:52:36;;;;;;;4.72;0.88;;;;;;;2.55;84.24;95764.91;5068786;28;20048;-55
2021/12/02 04:55:04;;;;;;;5.22;0.90;;;;;;;2.53;84.22;95769.69;5066606;28;20388;-53
2021/12/02 04:57:31;;;;;;;2.85;0.60;;;;;;;2.57;83.87;95768.97;5068432;28;20045;-51
2021/12/02 04:59:57;;;;;;;4.32;0.80;;;;;;;2.54;84.00;95777.47;5062533;28;20597;-50
2021/12/02 05:02:24;;;;;;;1.05;0.63;;;;;;;2.61;84.02;95761.28;5045833;28;20095;-53
2021/12/02 05:04:51;;;;;;;1.67;0.85;;;;;;;2.45;84.68;95761.03;5046395;28;20044;-51
2021/12/02 05:07:17;;;;;;;2.17;0.75;;;;;;;2.40;84.90;95768.91;5065964;28;20091;-52
2021/12/02 05:09:44;;;;;;;2.78;0.93;;;;;;;2.50;84.60;95770.19;5067360;28;20512;-49
2021/12/02 05:12:11;;;;;;;5.50;0.73;;;;;;;2.65;83.96;95765.09;5049023;28;20485;-55
2021/12/02 05:14:37;;;;;;;2.15;0.80;;;;;;;2.69;83.52;95766.22;5048829;28;20107;-52
2021/12/02 05:17:04;;;;;;;3.53;0.80;;;;;;;2.74;83.05;95768.19;5054872;28;20040;-50
2021/12/02 05:19:30;;;;;;;1.40;0.73;;;;;;;2.77;82.72;95769.56;5047879;28;20436;-55
2021/12/02 05:21:57;;;;;;;2.38;0.80;;;;;;;2.83;82.70;95763.22;5067410;28;20043;-55
2021/12/02 05:24:24;;;;;;;2.53;0.70;;;;;;;2.64;83.39;95766.13;5050368;28;20041;-48
2021/12/02 05:26:50;;;;;;;2.50;1.13;;;;;;;2.54;83.69;95760.63;5055969;28;20049;-48
2021/12/02 05:29:19;;;;;;;2.38;0.80;;;;;;;2.46;84.33;95769.81;5048223;28;20041;-55
2021/12/02 05:31:46;;;;;;;1.17;0.68;;;;;;;2.60;83.18;95765.81;5055500;28;20044;-57
2021/12/02 05:34:13;;;;;;;1.55;0.50;;;;;;;2.59;83.43;95766.84;5047898;28;20033;-53
2021/12/02 05:36:39;;;;;;;1.90;0.60;;;;;;;2.65;83.27;95765.09;5045159;28;20120;-54
2021/12/02 05:39:06;;;;;;;0.63;0.40;;;;;;;2.64;83.28;95766.13;5047002;28;20515;-55
2021/12/02 05:41:33;;;;;;;0.95;0.55;;;;;;;2.60;83.67;95773.84;5048053;28;20047;-53
2021/12/02 05:44:00;;;;;;;0.60;0.50;;;;;;;2.57;84.01;95773.50;5042992;28;20056;-52
2021/12/02 05:46:27;;;;;;;2.05;0.60;;;;;;;2.55;83.87;95768.38;5047784;28;20044;-51
2021/12/02 05:48:54;;;;;;;1.15;0.52;;;;;;;2.34;85.07;95760.03;5047489;28;20053;-56
2021/12/02 05:51:21;;;;;;;2.13;0.60;;;;;;;2.38;84.55;95771.03;5045343;28;20474;-52
2021/12/02 05:53:47;;;;;;;1.65;0.70;;;;;;;2.46;84.54;95753.78;5044109;28;20512;-55
2021/12/02 05:56:14;;;;;;;4.60;1.13;;;;;;;2.51;84.53;95751.22;5047227;28;20047;-56
2021/12/02 05:58:40;;;;;;;0.82;0.50;;;;;;;2.45;84.69;95749.50;5046359;28;20033;-56
2021/12/02 06:01:07;;;;;;;1.00;0.57;;;;;;;2.58;84.46;95748.41;5047005;28;20040;-51
2021/12/02 06:03:36;;;;;;;2.38;0.98;;;;;;;2.48;85.25;95746.38;5046458;28;20041;-53
2021/12/02 06:06:04;;;;;;;2.13;0.90;;;;;;;2.38;85.53;95748.84;5047196;28;20044;-51
2021/12/02 06:08:31;;;;;;;2.58;0.88;;;;;;;2.47;85.64;95740.19;5047929;28;20436;-54
2021/12/02 06:10:58;;;;;;;4.57;0.90;;;;;;;2.57;85.03;95739.56;5053073;28;20041;-53
2021/12/02 06:13:26;;;;;;;2.30;0.73;;;;;;;2.52;85.33;95736.81;5055033;28;20090;-52
2021/12/02 06:15:52;;;;;;;2.22;1.00;;;;;;;2.44;85.79;95729.19;5052587;28;20048;-55
2021/12/02 06:18:19;;;;;;;1.40;0.88;;;;;;;2.32;86.39;95726.59;5041253;28;20531;-55
2021/12/02 06:20:51;;;;;;;2.60;1.10;;;;;;;2.40;86.02;95728.06;5050047;28;20056;-55
2021/12/02 06:23:17;;;;;;;1.90;1.00;;;;;;;2.37;86.01;95724.00;5065722;28;20431;-55
2021/12/02 06:25:45;;;;;;;1.80;0.90;;;;;;;2.22;86.60;95729.88;5062225;28;20806;-55
2021/12/02 06:28:12;;;;;;;1.60;0.80;;;;;;;2.19;87.04;95730.34;5046276;28;20044;-54
2021/12/02 06:30:38;;;;;;;3.78;0.98;;;;;;;2.18;87.08;95734.09;5046751;28;20503;-56
2021/12/02 06:33:05;;;;;;;2.75;1.33;;;;;;;2.23;86.92;95738.69;5045066;28;20068;-56
2021/12/02 06:35:37;;;;;;;;;;;;;;;2.24;87.04;95737.66;5046289;28;20129;-56
2021/12/02 06:38:04;;;;;;;2.65;0.93;;;;;;;2.19;86.86;95728.50;5045658;28;19986;-53
2021/12/02 06:40:33;;;;;;;3.83;0.98;;;;;;;2.11;87.19;95734.22;5046008;28;20044;-56
2021/12/02 06:43:04;;;;;;;3.35;1.30;;;;;;;2.05;87.25;95735.97;5052647;28;20119;-55
2021/12/02 06:45:31;;;;;;;1.88;1.05;;;;;;;2.10;87.13;95734.47;5048875;28;20052;-51
2021/12/02 06:47:59;;;;;;;4.88;0.90;;;;;;;2.12;86.75;95732.34;5062482;28;20103;-57
2021/12/02 06:50:28;;;;;;;4.75;2.20;;;;;;;2.03;87.43;95732.72;5045990;28;20515;-52
2021/12/02 06:52:55;;;;;;;7.03;3.75;;;;;;;1.94;87.40;95732.31;5064184;28;20056;-56
2021/12/02 06:55:22;;;;;;;3.90;1.58;;;;;;;1.91;87.96;95729.28;5065553;28;20036;-49
2021/12/02 06:57:49;;;;;;;8.60;3.08;;;;;;;1.97;87.45;95722.19;5065058;28;20052;-52
2021/12/02 07:00:18;;;;;;;1.65;0.90;;;;;;;1.94;87.53;95728.81;5045837;28;20040;-54
2021/12/02 07:02:45;;;;;;;1.27;0.85;;;;;;;2.08;86.33;95729.34;5044301;28;20048;-52
2021/12/02 07:05:15;;;;;;;0.85;0.70;;;;;;;2.19;85.28;95731.19;5049059;28;20040;-53
2021/12/02 07:07:42;;;;;;;2.20;0.70;;;;;;;2.23;85.48;95728.00;5042228;28;21851;-54
2021/12/02 07:10:14;;;;;;;1.30;0.70;;;;;;;2.14;85.37;95731.06;5039438;28;20044;-55
2021/12/02 07:12:42;;;;;;;1.52;0.75;;;;;;;2.15;85.43;95732.69;5044667;28;20519;-54
2021/12/02 07:15:18;;;;;;;5.78;1.70;;;;;;;2.04;85.51;95730.88;5055829;28;20543;-50
2021/12/02 07:17:46;;;;;;;2.33;1.27;;;;;;;2.10;85.32;95748.59;5047059;28;20056;-55
2021/12/02 07:20:13;;;;;;;3.42;1.20;;;;;;;2.10;85.63;95740.59;5046222;28;20420;-53
2021/12/02 07:22:40;;;;;;;1.80;0.63;;;;;;;2.11;85.02;95739.56;5063625;28;20052;-54
2021/12/02 07:25:07;;;;;;;3.25;1.00;;;;;;;2.00;85.40;95740.41;5059366;28;20052;-52
2021/12/02 07:27:34;;;;;;;3.85;1.33;;;;;;;1.89;86.04;95742.88;5043415;28;20041;-51
2021/12/02 07:30:00;;;;;;;5.65;1.45;;;;;;;1.95;86.42;95752.59;5056382;28;20049;-51
2021/12/02 07:32:39;;;;;;;2.40;0.95;;;;;;;1.90;86.52;95755.19;5044262;28;20053;-50
2021/12/02 07:35:15;;;;;;;4.07;1.52;;;;;;;1.87;86.93;95747.63;5049418;28;20094;-51
2021/12/02 07:37:45;;;;;;;4.38;1.50;;;;;;;1.90;87.09;95762.38;5062094;28;20577;-51
2021/12/02 07:40:13;;;;;;;9.75;4.65;;;;;;;1.87;86.97;95755.66;5042492;28;20044;-52
2021/12/02 07:42:39;;;;;;;3.00;1.90;;;;;;;1.85;87.56;95757.75;5048164;28;20287;-50
2021/12/02 07:45:07;;;;;;;4.18;1.80;;;;;;;1.89;87.50;95768.75;5052360;28;20052;-50
2021/12/02 07:47:38;;;;;;;4.80;2.03;;;;;;;1.92;87.27;95760.28;5058820;28;20056;-50
2021/12/02 07:50:07;;;;;;;6.20;3.72;;;;;;;2.02;86.87;95767.66;5047759;28;20041;-48
2021/12/02 07:52:35;;;;;;;3.47;1.73;;;;;;;2.07;86.83;95762.44;5040356;28;20670;-54
2021/12/02 07:55:08;;;;;;;3.20;1.90;;;;;;;2.15;87.24;95769.25;5041172;28;20274;-54
2021/12/02 07:57:40;;;;;;;3.20;1.55;;;;;;;2.24;86.86;95773.16;5042112;28;20057;-54
2021/12/02 08:00:07;;;;;;;;;;;;;;;2.23;86.92;95771.56;5044421;28;20067;-55
2021/12/02 08:02:35;;;;;;;3.08;1.40;;;;;;;2.30;87.12;95776.75;5045179;28;19960;-54
2021/12/02 08:05:03;;;;;;;3.30;1.40;;;;;;;2.38;86.77;95778.22;5044320;28;20531;-53
2021/12/02 08:07:29;;;;;;;3.30;1.23;;;;;;;2.62;85.87;95789.63;5043578;28;20063;-57
2021/12/02 08:09:56;;;;;;;2.40;1.40;;;;;;;2.72;85.49;95784.47;5042918;28;20090;-56
2021/12/02 08:12:23;;;;;;;2.90;1.50;;;;;;;2.81;85.27;95786.75;5055250;28;20059;-56
2021/12/02 08:14:50;;;;;;;3.47;1.65;;;;;;;2.76;84.76;95776.75;5047031;28;20049;-57
2021/12/02 08:17:17;;;;;;;2.65;1.00;;;;;;;2.78;84.82;95782.69;5060598;28;20098;-55
2021/12/02 08:19:44;;;;;;;4.20;1.27;;;;;;;2.93;84.74;95778.63;5044838;28;20530;-51
2021/12/02 08:22:10;;;;;;;2.05;1.10;;;;;;;3.08;84.09;95778.91;5045237;28;20044;-56
2021/12/02 08:24:37;;;;;;;3.88;1.45;;;;;;;3.17;83.72;95781.97;5029013;28;20508;-52
2021/12/02 08:27:04;;;;;;;38.40;14.27;;;;;;;3.02;83.62;95777.19;5037723;28;20049;-55
2021/12/02 08:29:32;;;;;;;4.75;2.53;;;;;;;3.02;84.10;95781.72;5044900;28;20779;-57
2021/12/02 08:32:01;;;;;;;7.22;2.95;;;;;;;3.01;84.61;95788.13;5035462;28;20059;-57
2021/12/02 08:34:27;;;;;;;5.38;2.13;;;;;;;2.95;84.56;95785.38;5048317;28;20049;-57
2021/12/02 08:36:55;;;;;;;2.20;1.20;;;;;;;3.04;83.81;95782.28;5058013;28;20059;-57
2021/12/02 08:39:26;;;;;;;7.22;3.15;;;;;;;3.02;84.17;95787.88;5045460;28;20037;-55
2021/12/02 08:41:54;;;;;;;8.57;4.10;;;;;;;3.07;83.83;95792.50;5049816;28;20835;-57
2021/12/02 08:44:23;;;;;;;2.50;1.30;;;;;;;3.30;82.46;95788.03;5047078;28;20170;-58
2021/12/02 08:46:50;;;;;;;2.83;1.30;;;;;;;3.44;81.70;95794.69;5060365;28;20037;-55
2021/12/02 08:49:18;;;;;;;6.53;2.45;;;;;;;3.39;81.61;95789.22;5050110;28;20049;-57
2021/12/02 08:51:45;;;;;;;3.75;2.20;;;;;;;3.41;81.89;95795.16;5044459;28;20080;-57
2021/12/02 08:54:12;;;;;;;2.67;1.65;;;;;;;3.50;81.41;95785.66;5045864;28;20037;-57
2021/12/02 08:56:40;;;;;;;3.83;1.40;;;;;;;3.45;81.19;95782.09;5049881;28;20049;-57
2021/12/02 08:59:07;;;;;;;2.55;1.55;;;;;;;3.43;82.27;95790.38;5058140;28;20049;-57
2021/12/02 09:01:34;;;;;;;3.50;1.23;;;;;;;3.69;80.67;95782.69;5061488;28;20116;-57
2021/12/02 09:04:04;;;;;;;3.80;1.73;;;;;;;3.92;79.08;95780.88;5048319;28;20531;-55
2021/12/02 09:06:31;;;;;;;3.90;1.40;;;;;;;4.08;78.93;95784.53;5046695;28;20048;-56
2021/12/02 09:08:59;;;;;;;4.30;1.60;;;;;;;4.01;79.80;95787.41;5055336;28;20666;-57
2021/12/02 09:11:27;;;;;;;3.17;1.63;;;;;;;4.06;79.39;95781.31;5044371;28;20055;-56
2021/12/02 09:13:58;;;;;;;5.25;1.63;;;;;;;3.89;79.45;95782.19;5047272;28;20496;-56
2021/12/02 09:16:25;;;;;;;3.83;1.70;;;;;;;3.97;80.31;95794.31;5043592;28;20048;-57
2021/12/02 09:18:53;;;;;;;2.90;1.40;;;;;;;3.95;79.68;95795.63;5041615;28;20118;-57
2021/12/02 09:21:20;;;;;;;4.80;1.58;;;;;;;3.81;80.75;95803.19;5049888;28;20045;-51
2021/12/02 09:23:47;;;;;;;3.42;1.35;;;;;;;3.81;80.43;95798.66;5046916;28;20048;-52
2021/12/02 09:26:14;;;;;;;4.00;1.90;;;;;;;3.53;81.98;95811.13;5065531;28;20495;-55
2021/12/02 09:28:41;;;;;;;3.47;1.48;;;;;;;3.50;81.40;95816.97;5025862;28;20046;-55
2021/12/02 09:31:07;;;;;;;15.10;8.30;;;;;;;3.24;83.93;95841.47;5050043;28;20048;-50
2021/12/02 09:33:34;;;;;;;3.40;1.30;;;;;;;2.91;84.09;95851.06;5044882;28;20130;-55
2021/12/02 09:36:03;;;;;;;5.68;2.17;;;;;;;2.17;85.19;95856.09;5050099;28;20047;-51
2021/12/02 09:38:29;;;;;;;3.03;1.50;;;;;;;1.65;86.69;95860.34;5064666;28;20052;-53
2021/12/02 09:40:56;;;;;;;2.63;1.17;;;;;;;1.38;86.85;95860.78;5049037;28;20060;-54
2021/12/02 09:43:22;;;;;;;1.75;0.90;;;;;;;1.10;87.41;95872.13;5059496;28;20053;-53
2021/12/02 09:45:49;;;;;;;1.55;0.50;;;;;;;0.85;87.72;95868.56;5048398;28;20040;-49
2021/12/02 09:48:16;;;;;;;0.85;0.65;;;;;;;0.55;88.59;95879.22;5055017;28;20045;-56
2021/12/02 09:50:52;;;;;;;0.70;0.47;;;;;;;0.49;88.80;95867.63;5045615;28;20048;-56
2021/12/02 09:53:24;;;;;;;3.92;1.65;;;;;;;0.41;88.63;95875.91;5045406;28;20052;-55
2021/12/02 09:56:01;;;;;;;1.63;0.82;;;;;;;0.44;88.93;95872.81;5043343;28;20507;-54
2021/12/02 09:58:29;;;;;;;1.25;0.63;;;;;;;0.41;89.20;95870.59;5041380;28;20110;-52
2021/12/02 10:01:17;;;;;;;1.08;0.63;;;;;;;0.44;89.20;95864.81;5053988;28;20041;-56
2021/12/02 10:03:46;;;;;;;1.38;0.80;;;;;;;0.40;89.20;95869.75;5039381;28;20655;-54
2021/12/02 10:06:20;;;;;;;1.40;0.52;;;;;;;0.48;89.25;95866.78;5050149;28;20049;-56
2021/12/02 10:09:08;;;;;;;1.77;0.90;;;;;;;0.50;89.05;95871.91;5049220;28;20570;-57
2021/12/02 10:12:07;;;;;;;1.35;0.70;;;;;;;0.62;89.18;95869.28;5041368;28;20056;-53
2021/12/02 10:14:35;;;;;;;2.03;0.65;;;;;;;0.79;88.21;95877.47;5045216;28;20056;-54
2021/12/02 10:17:06;;;;;;;2.97;0.90;;;;;;;0.78;88.84;95868.66;5045490;28;20041;-55
2021/12/02 10:19:34;;;;;;;1.80;0.85;;;;;;;0.89;88.88;95859.06;5050324;28;20398;-49
2021/12/02 10:22:06;;;;;;;2.40;1.15;;;;;;;0.93;89.16;95867.44;5045983;28;20063;-50
2021/12/02 10:24:42;;;;;;;1.48;0.60;;;;;;;0.99;88.44;95863.84;5049517;28;20052;-47
2021/12/02 10:27:10;;;;;;;1.67;0.80;;;;;;;0.95;88.44;95859.22;5044104;28;20695;-51
2021/12/02 10:29:47;;;;;;;1.48;0.63;;;;;;;0.97;88.90;95854.47;5045179;28;20049;-52
2021/12/02 10:32:25;;;;;;;3.72;1.20;;;;;;;1.07;89.17;95856.56;5039006;28;20512;-49
2021/12/02 10:35:03;;;;;;;1.50;0.88;;;;;;;1.10;88.49;95850.78;5033160;28;20124;-52
2021/12/02 10:37:32;;;;;;;5.30;2.55;;;;;;;0.96;88.96;95856.28;5053100;28;20040;-50
2021/12/02 10:40:05;;;;;;;2.97;1.23;;;;;;;0.98;88.71;95856.91;5052912;28;20037;-53
2021/12/02 10:42:35;;;;;;;2.38;1.00;;;;;;;1.12;88.35;95859.34;5043693;28;20633;-51
2021/12/02 10:45:04;;;;;;;0.65;0.40;;;;;;;1.17;87.77;95870.97;5046855;28;20049;-49
2021/12/02 10:47:31;;;;;;;5.53;2.75;;;;;;;1.00;88.24;95875.34;5046187;28;20128;-52
2021/12/02 10:50:08;;;;;;;2.35;1.23;;;;;;;1.00;88.63;95862.81;5049122;28;20137;-53
2021/12/02 10:52:35;;;;;;;2.58;1.10;;;;;;;0.88;88.99;95872.59;5037882;28;20122;-53
2021/12/02 10:55:18;;;;;;;1.13;0.75;;;;;;;0.94;89.19;95871.72;5047516;28;20045;-54
2021/12/02 10:57:46;;;;;;;3.15;1.50;;;;;;;0.86;89.07;95870.19;5059013;28;20797;-54
2021/12/02 11:00:16;;;;;;;5.35;2.50;;;;;;;0.92;88.89;95873.78;5051202;28;20676;-52
2021/12/02 11:02:49;;;;;;;4.18;1.30;;;;;;;0.95;88.88;95870.66;5043205;28;20064;-54
2021/12/02 11:05:25;;;;;;;2.40;0.93;;;;;;;1.02;88.75;95870.56;5043074;28;20827;-56
2021/12/02 11:07:57;;;;;;;7.25;3.83;;;;;;;0.94;88.51;95870.91;5048469;28;20044;-54
2021/12/02 11:10:25;;;;;;;3.90;1.30;;;;;;;1.17;88.64;95862.16;5050964;28;20041;-54
2021/12/02 11:12:55;;;;;;;1.60;0.75;;;;;;;1.15;88.45;95861.56;5062845;28;20063;-56
2021/12/02 11:15:28;;;;;;;4.95;2.28;;;;;;;1.15;89.17;95862.38;5059519;28;20044;-51
2021/12/02 11:17:57;;;;;;;6.53;3.05;;;;;;;1.18;89.83;95861.09;5042687;28;20047;-56
2021/12/02 11:20:25;;;;;;;5.15;2.13;;;;;;;1.11;89.66;95861.19;5037685;28;20128;-55
2021/12/02 11:23:19;;;;;;;2.78;1.10;;;;;;;1.15;89.46;95859.69;5047556;28;20053;-56
2021/12/02 11:25:49;;;;;;;7.20;4.10;;;;;;;1.07;89.88;95854.69;5044819;28;20064;-57
2021/12/02 11:28:16;;;;;;;1.95;1.02;;;;;;;1.01;88.85;95852.97;5040391;28;20048;-57
2021/12/02 11:30:44;;;;;;;8.32;3.50;;;;;;;1.06;90.03;95847.75;5044281;28;20132;-56
2021/12/02 11:33:32;;;;;;;4.35;2.22;;;;;;;1.22;88.61;95848.13;5045765;28;20439;-53
2021/12/02 11:35:59;;;;;;;9.43;5.00;;;;;;;1.17;89.02;95852.31;5045282;28;20041;-52
2021/12/02 11:38:27;;;;;;;6.75;3.67;;;;;;;1.27;88.85;95849.06;5047550;28;20550;-52
2021/12/02 11:41:02;;;;;;;3.50;2.08;;;;;;;1.23;88.26;95858.56;5047030;28;20041;-53
2021/12/02 11:43:34;;;;;;;4.93;2.63;;;;;;;1.43;88.76;95858.25;5045477;28;20041;-56
2021/12/02 11:46:03;;;;;;;9.00;4.38;;;;;;;1.55;88.62;95852.13;5052461;28;20044;-55
2021/12/02 11:48:32;;;;;;;2.85;1.60;;;;;;;1.79;88.87;95849.41;5064973;28;20044;-56
2021/12/02 11:51:05;;;;;;;8.48;4.10;;;;;;;1.88;87.94;95845.34;5063163;28;20683;-58
2021/12/02 11:53:31;;;;;;;5.32;1.60;;;;;;;1.87;87.53;95843.72;5065522;28;20048;-57
2021/12/02 11:56:06;;;;;;;7.00;3.80;;;;;;;1.89;88.23;95847.00;5046409;28;20049;-56
2021/12/02 11:58:32;;;;;;;10.35;6.50;;;;;;;1.75;89.62;95846.41;5052714;28;20040;-58
2021/12/02 12:00:59;;;;;;;6.00;2.75;;;;;;;1.77;89.19;95849.66;5057264;28;20048;-58
2021/12/02 12:03:32;;;;;;;7.28;4.00;;;;;;;1.62;88.73;95838.66;5056969;28;20068;-58
2021/12/02 12:06:02;;;;;;;4.03;1.77;;;;;;;1.44;89.24;95851.06;5042727;28;20056;-56
2021/12/02 12:08:40;;;;;;;4.90;2.65;;;;;;;1.33;89.57;95851.84;5060050;28;20047;-57
2021/12/02 12:11:22;;;;;;;4.90;2.47;;;;;;;1.26;88.80;95849.31;5047400;28;20045;-57
2021/12/02 12:13:53;;;;;;;8.32;3.97;;;;;;;1.29;88.75;95846.97;5036227;28;20049;-55